createdAt,value
2022-08-04T00:01:01.867Z,28.30
2022-08-04T00:03:40.046Z,28.30
2022-08-04T00:06:16.414Z,28.30
2022-08-04T00:08:47.757Z,28.20
2022-08-04T00:11:20.892Z,28.20
2022-08-04T00:14:02.632Z,28.20
2022-08-04T00:16:37.644Z,28.20
2022-08-04T00:19:12.041Z,28.20
2022-08-04T00:21:43.522Z,28.20
2022-08-04T00:24:13.834Z,28.20
2022-08-04T00:26:42.658Z,28.10
2022-08-04T00:29:12.348Z,28.10
2022-08-04T00:31:57.059Z,28.10
2022-08-04T00:34:27.905Z,28.10
2022-08-04T00:36:57.527Z,28.10
2022-08-04T00:39:26.846Z,28.10
2022-08-04T00:42:22.706Z,28.00
2022-08-04T00:45:04.278Z,28.00
2022-08-04T00:47:54.645Z,28.00
2022-08-04T00:50:30.918Z,28.00
2022-08-04T00:53:07.933Z,28.00
2022-08-04T00:55:55.503Z,28.00
2022-08-04T00:58:30.690Z,28.00
2022-08-04T01:01:04.420Z,27.90
2022-08-04T01:03:50.565Z,27.90
2022-08-04T01:06:30.499Z,27.90
2022-08-04T01:09:21.689Z,27.90
2022-08-04T01:12:11.326Z,27.90
2022-08-04T01:14:56.556Z,27.90
2022-08-04T01:17:36.942Z,27.90
2022-08-04T01:20:08.410Z,27.90
2022-08-04T01:23:07.494Z,27.90
2022-08-04T01:26:04.607Z,27.90
2022-08-04T01:29:06.353Z,27.90
2022-08-04T01:31:44.096Z,27.80
2022-08-04T01:34:14.494Z,27.80
2022-08-04T01:36:50.031Z,27.80
2022-08-04T01:39:37.181Z,27.80
2022-08-04T01:42:09.625Z,27.80
2022-08-04T01:44:42.085Z,27.70
2022-08-04T01:47:11.213Z,27.70
2022-08-04T01:49:41.211Z,27.70
2022-08-04T01:52:11.378Z,27.70
2022-08-04T01:54:42.784Z,27.70
2022-08-04T01:57:37.830Z,27.70
2022-08-04T02:00:02.360Z,27.70
2022-08-04T02:02:32.393Z,27.70
2022-08-04T02:05:00.660Z,27.70
2022-08-04T02:07:48.644Z,27.60
2022-08-04T02:10:26.548Z,27.60
2022-08-04T02:13:02.642Z,27.60
2022-08-04T02:15:40.409Z,27.60
2022-08-04T02:18:17.172Z,27.60
2022-08-04T02:20:47.890Z,27.60
2022-08-04T02:23:17.434Z,27.50
2022-08-04T02:25:48.620Z,27.50
2022-08-04T02:28:24.054Z,27.50
2022-08-04T02:31:04.050Z,27.50
2022-08-04T02:33:38.354Z,27.50
2022-08-04T02:36:11.902Z,27.50
2022-08-04T02:38:57.256Z,27.50
2022-08-04T02:41:27.985Z,27.50
2022-08-04T02:44:00.665Z,27.40
2022-08-04T02:46:31.881Z,27.40
2022-08-04T02:49:03.637Z,27.40
2022-08-04T02:51:35.129Z,27.40
2022-08-04T02:54:05.975Z,27.40
2022-08-04T02:56:37.328Z,27.30
2022-08-04T02:59:06.944Z,27.30
2022-08-04T03:01:37.099Z,27.30
2022-08-04T03:04:24.777Z,27.30
2022-08-04T03:07:18.129Z,27.30
2022-08-04T03:10:19.621Z,27.30
2022-08-04T03:13:33.075Z,27.30
2022-08-04T03:16:38.800Z,27.20
2022-08-04T03:19:55.318Z,27.20
2022-08-04T03:23:06.286Z,27.20
2022-08-04T03:25:55.823Z,27.10
2022-08-04T03:29:08.407Z,27.20
2022-08-04T03:31:57.761Z,27.10
2022-08-04T03:34:45.633Z,27.10
2022-08-04T03:37:38.214Z,27.00
2022-08-04T03:40:37.247Z,27.00
2022-08-04T03:43:57.516Z,27.00
2022-08-04T03:46:57.780Z,27.00
2022-08-04T03:50:00.473Z,27.00
2022-08-04T03:53:09.195Z,26.90
2022-08-04T03:55:59.567Z,26.90
2022-08-04T03:58:49.733Z,26.90
2022-08-04T04:01:41.594Z,26.80
2022-08-04T04:04:44.057Z,26.80
2022-08-04T04:08:01.324Z,26.80
2022-08-04T04:10:53.792Z,26.80
2022-08-04T04:13:51.780Z,26.80
2022-08-04T04:16:38.616Z,26.70
2022-08-04T04:19:38.492Z,26.70
2022-08-04T04:22:34.212Z,26.70
2022-08-04T04:25:25.676Z,26.70
2022-08-04T04:28:44.857Z,26.70
2022-08-04T04:31:22.368Z,26.60
2022-08-04T04:34:06.097Z,26.60
2022-08-04T04:36:50.329Z,26.60
2022-08-04T04:39:29.211Z,26.60
2022-08-04T04:42:17.818Z,26.60
2022-08-04T04:45:10.878Z,26.60
2022-08-04T04:48:09.966Z,26.50
2022-08-04T04:51:02.388Z,26.50
2022-08-04T04:53:37.342Z,26.50
2022-08-04T04:56:12.271Z,26.50
2022-08-04T04:58:44.047Z,26.50
2022-08-04T05:01:36.110Z,26.50
2022-08-04T05:04:24.697Z,26.50
2022-08-04T05:07:19.609Z,26.50
2022-08-04T05:09:58.885Z,26.50
2022-08-04T05:14:33.289Z,26.50
2022-08-04T05:15:46.615Z,26.50
2022-08-04T05:18:22.521Z,26.60
2022-08-04T05:20:55.583Z,26.60
2022-08-04T05:23:28.833Z,26.60
2022-08-04T05:26:00.919Z,26.60
2022-08-04T05:28:34.921Z,26.60
2022-08-04T05:31:12.002Z,26.80
2022-08-04T05:33:48.252Z,26.60
2022-08-04T05:36:35.355Z,26.60
2022-08-04T05:39:13.247Z,26.60
2022-08-04T05:41:46.022Z,26.60
2022-08-04T05:44:18.095Z,26.60
2022-08-04T05:46:54.544Z,26.70
2022-08-04T05:49:24.447Z,26.70
2022-08-04T05:51:53.789Z,26.70
2022-08-04T05:54:23.526Z,26.70
2022-08-04T05:56:52.439Z,26.70
2022-08-04T05:59:23.698Z,26.70
2022-08-04T06:01:57.250Z,26.70
2022-08-04T06:04:32.105Z,26.70
2022-08-04T06:07:00.433Z,26.70
2022-08-04T06:09:28.785Z,26.70
2022-08-04T06:12:04.368Z,26.70
2022-08-04T06:14:36.872Z,26.70
2022-08-04T06:17:52.117Z,26.70
2022-08-04T06:20:17.911Z,26.70
2022-08-04T06:22:50.423Z,26.80
2022-08-04T06:25:22.151Z,26.80
2022-08-04T06:27:51.614Z,26.80
2022-08-04T06:30:20.753Z,26.80
2022-08-04T06:33:03.519Z,26.80
2022-08-04T06:35:34.693Z,26.80
2022-08-04T06:38:04.244Z,26.80
2022-08-04T06:40:34.573Z,26.80
2022-08-04T06:43:05.971Z,26.80
2022-08-04T06:45:38.302Z,26.80
2022-08-04T06:48:09.094Z,26.90
2022-08-04T06:51:27.495Z,26.90
2022-08-04T06:53:27.377Z,26.90
2022-08-04T06:55:57.396Z,26.90
2022-08-04T06:58:27.162Z,26.90
2022-08-04T07:01:01.767Z,26.90
2022-08-04T07:03:32.954Z,26.90
2022-08-04T07:06:06.322Z,27.00
2022-08-04T07:08:37.235Z,27.00
2022-08-04T07:11:06.331Z,27.00
2022-08-04T07:13:34.826Z,27.00
2022-08-04T07:16:03.676Z,27.00
2022-08-04T07:18:33.722Z,27.00
2022-08-04T07:21:02.121Z,27.10
2022-08-04T07:23:30.543Z,27.10
2022-08-04T07:26:12.190Z,27.10
2022-08-04T07:28:42.174Z,27.10
2022-08-04T07:31:32.978Z,27.10
2022-08-04T07:34:17.414Z,27.10
2022-08-04T07:36:55.119Z,27.10
2022-08-04T07:39:28.123Z,27.10
2022-08-04T07:41:58.961Z,27.20
2022-08-04T07:44:27.373Z,27.10
2022-08-04T07:46:55.940Z,27.20
2022-08-04T07:49:54.870Z,27.20
2022-08-04T07:52:15.361Z,27.20
2022-08-04T07:54:44.793Z,27.20
2022-08-04T07:57:39.692Z,27.30
2022-08-04T08:00:01.317Z,27.30
2022-08-04T08:02:40.483Z,27.30
2022-08-04T08:05:13.589Z,27.30
2022-08-04T08:07:50.812Z,27.30
2022-08-04T08:10:23.286Z,27.30
2022-08-04T08:12:52.638Z,27.30
2022-08-04T08:15:21.919Z,27.40
2022-08-04T08:17:59.130Z,27.40
2022-08-04T08:20:32.682Z,27.40
2022-08-04T08:23:03.297Z,27.40
2022-08-04T08:25:32.887Z,27.50
2022-08-04T08:28:03.397Z,27.50
2022-08-04T08:30:33.405Z,27.50
2022-08-04T08:33:05.766Z,27.50
2022-08-04T08:35:53.098Z,27.50
2022-08-04T08:38:29.918Z,27.60
2022-08-04T08:41:14.920Z,27.60
2022-08-04T08:44:00.568Z,27.70
2022-08-04T08:46:56.412Z,27.70
2022-08-04T08:50:04.671Z,27.70
2022-08-04T08:53:02.616Z,27.70
2022-08-04T08:55:43.622Z,27.70
2022-08-04T08:58:32.487Z,27.80
2022-08-04T09:01:22.844Z,27.80
2022-08-04T09:04:32.195Z,27.80
2022-08-04T09:07:25.555Z,27.80
2022-08-04T09:10:10.053Z,27.80
2022-08-04T09:12:48.091Z,27.80
2022-08-04T09:15:19.711Z,27.90
2022-08-04T09:17:50.914Z,27.90
2022-08-04T09:20:29.825Z,27.90
2022-08-04T09:23:10.072Z,27.90
2022-08-04T09:25:47.400Z,27.90
2022-08-04T09:28:50.812Z,28.00
2022-08-04T09:31:16.168Z,28.00
2022-08-04T09:33:51.751Z,28.00
2022-08-04T09:36:29.528Z,28.10
2022-08-04T09:39:21.890Z,28.10
2022-08-04T09:42:01.089Z,28.10
2022-08-04T09:44:51.294Z,28.20
2022-08-04T09:47:39.108Z,28.20
2022-08-04T09:50:38.695Z,28.20
2022-08-04T09:53:22.139Z,28.30
2022-08-04T09:56:04.649Z,28.30
2022-08-04T09:58:53.125Z,28.30
2022-08-04T10:01:24.579Z,28.40
2022-08-04T10:03:57.355Z,28.40
2022-08-04T10:06:55.684Z,28.40
2022-08-04T10:09:39.265Z,28.40
2022-08-04T10:12:30.272Z,28.50
2022-08-04T10:15:11.775Z,28.50
2022-08-04T10:17:52.243Z,28.50
2022-08-04T10:20:52.863Z,28.50
2022-08-04T10:23:56.591Z,28.60
2022-08-04T10:26:32.085Z,28.70
2022-08-04T10:29:05.763Z,28.70
2022-08-04T10:31:40.686Z,28.70
2022-08-04T10:34:14.009Z,28.70
2022-08-04T10:36:50.778Z,28.80
2022-08-04T10:39:42.788Z,28.80
2022-08-04T10:42:22.692Z,28.80
2022-08-04T10:45:05.096Z,28.80
2022-08-04T10:47:39.406Z,28.90
2022-08-04T10:50:12.728Z,28.80
2022-08-04T10:52:47.214Z,28.90
2022-08-04T10:55:20.398Z,29.00
2022-08-04T10:57:52.643Z,29.00
2022-08-04T11:00:25.435Z,29.00
2022-08-04T11:03:01.829Z,29.10
2022-08-04T11:05:44.461Z,29.10
2022-08-04T11:08:20.905Z,29.10
2022-08-04T11:10:56.984Z,29.00
2022-08-04T11:13:30.133Z,29.00
2022-08-04T11:16:03.602Z,29.00
2022-08-04T11:18:39.824Z,29.00
2022-08-04T11:21:16.455Z,29.00
2022-08-04T11:23:51.827Z,29.00
2022-08-04T11:26:25.656Z,29.00
2022-08-04T11:29:06.804Z,29.00
2022-08-04T11:31:40.443Z,29.00
2022-08-04T11:34:24.128Z,29.00
2022-08-04T11:37:00.373Z,29.00
2022-08-04T11:39:32.938Z,29.00
2022-08-04T11:42:09.033Z,29.00
2022-08-04T11:44:43.002Z,29.00
2022-08-04T11:47:26.019Z,29.00
2022-08-04T11:50:01.824Z,29.00
2022-08-04T11:52:31.659Z,29.00
2022-08-04T11:55:03.698Z,29.00
2022-08-04T11:57:36.170Z,28.90
2022-08-04T12:00:09.958Z,28.90
2022-08-04T12:03:11.969Z,28.90
2022-08-04T12:05:53.191Z,28.80
2022-08-04T12:08:30.674Z,28.70
2022-08-04T12:11:08.883Z,28.70
2022-08-04T12:13:44.960Z,28.70
2022-08-04T12:16:17.977Z,28.70
2022-08-04T12:18:52.540Z,28.70
2022-08-04T12:21:32.773Z,28.60
2022-08-04T12:24:06.593Z,28.60
2022-08-04T12:26:39.388Z,28.60
2022-08-04T12:29:10.994Z,28.60
2022-08-04T12:31:46.457Z,28.60
2022-08-04T12:34:18.313Z,28.60
2022-08-04T12:36:55.854Z,28.60
2022-08-04T12:39:26.835Z,28.60
2022-08-04T12:42:03.391Z,28.60
2022-08-04T12:44:38.496Z,28.60
2022-08-04T12:47:36.739Z,28.60
2022-08-04T12:50:03.623Z,28.70
2022-08-04T12:53:00.950Z,28.70
2022-08-04T12:55:31.592Z,28.70
2022-08-04T12:58:02.818Z,28.70
2022-08-04T13:00:40.847Z,28.70
2022-08-04T13:03:13.406Z,28.70
2022-08-04T13:05:43.610Z,28.70
2022-08-04T13:08:15.388Z,28.80
2022-08-04T13:10:47.397Z,28.80
2022-08-04T13:13:18.714Z,28.80
2022-08-04T13:15:57.775Z,28.80
2022-08-04T13:18:30.380Z,28.80
2022-08-04T13:21:19.951Z,28.80
2022-08-04T13:24:19.546Z,28.80
2022-08-04T13:26:56.009Z,28.80
2022-08-04T13:29:57.995Z,28.80
2022-08-04T13:32:28.671Z,28.80
2022-08-04T13:34:58.576Z,28.80
2022-08-04T13:37:35.917Z,28.80
2022-08-04T13:40:07.680Z,28.60
2022-08-04T13:42:38.227Z,28.80
2022-08-04T13:45:09.296Z,28.80
2022-08-04T13:47:40.211Z,28.80
2022-08-04T13:50:12.881Z,28.90
2022-08-04T13:52:44.487Z,28.80
2022-08-04T13:55:23.186Z,28.80
2022-08-04T13:57:55.916Z,28.80
2022-08-04T14:00:30.015Z,28.80
2022-08-04T14:03:03.628Z,28.70
2022-08-04T14:06:09.446Z,28.70
2022-08-04T14:08:47.533Z,28.80
2022-08-04T14:12:06.719Z,28.80
2022-08-04T14:14:17.956Z,28.80
2022-08-04T14:17:00.361Z,28.70
2022-08-04T14:19:36.559Z,28.70
2022-08-04T14:22:05.684Z,28.70
2022-08-04T14:24:33.928Z,28.70
2022-08-04T14:27:03.771Z,28.70
2022-08-04T14:29:39.392Z,28.70
2022-08-04T14:32:14.087Z,28.70
2022-08-04T14:34:45.162Z,28.70
2022-08-04T14:37:19.295Z,28.60
2022-08-04T14:40:18.137Z,28.70
2022-08-04T14:42:44.592Z,28.60
2022-08-04T14:45:34.618Z,28.60
2022-08-04T14:48:03.919Z,28.60
2022-08-04T14:50:37.953Z,28.60
2022-08-04T14:53:08.802Z,28.60
2022-08-04T14:55:37.986Z,28.60
2022-08-04T14:58:34.749Z,28.60
2022-08-04T15:00:58.387Z,28.60
2022-08-04T15:03:26.971Z,28.70
2022-08-04T15:06:03.100Z,28.70
2022-08-04T15:08:34.069Z,28.60
2022-08-04T15:11:03.710Z,28.60
2022-08-04T15:13:35.039Z,28.60
2022-08-04T15:16:07.891Z,28.60
2022-08-04T15:18:38.783Z,28.50
2022-08-04T15:21:08.566Z,28.50
2022-08-04T15:23:38.630Z,28.50
2022-08-04T15:26:11.384Z,28.50
2022-08-04T15:28:47.200Z,28.60
2022-08-04T15:32:06.266Z,28.50
2022-08-04T15:34:05.060Z,28.50
2022-08-04T15:36:43.300Z,28.40
2022-08-04T15:39:24.967Z,28.40
2022-08-04T15:42:02.750Z,28.40
2022-08-04T15:44:59.476Z,28.30
2022-08-04T15:47:28.162Z,28.30
2022-08-04T15:50:10.758Z,28.30
2022-08-04T15:53:10.439Z,28.20
2022-08-04T15:55:44.057Z,28.20
2022-08-04T15:58:14.008Z,28.20
2022-08-04T16:01:17.837Z,28.20
2022-08-04T16:03:57.750Z,28.10
2022-08-04T16:06:45.273Z,28.20
2022-08-04T16:09:45.444Z,28.20
2022-08-04T16:12:55.034Z,28.20
2022-08-04T16:15:49.105Z,28.20
2022-08-04T16:18:41.175Z,28.30
2022-08-04T16:21:22.204Z,28.40
2022-08-04T16:24:19.123Z,28.40
2022-08-04T16:26:54.403Z,28.70
2022-08-04T16:29:35.863Z,28.70
2022-08-04T16:32:16.433Z,28.80
2022-08-04T16:34:55.612Z,28.90
2022-08-04T16:37:26.501Z,29.00
2022-08-04T16:40:33.285Z,29.10
2022-08-04T16:43:06.023Z,29.10
2022-08-04T16:45:56.182Z,29.20
2022-08-04T16:48:27.281Z,29.20
2022-08-04T16:51:03.202Z,29.20
2022-08-04T16:53:52.513Z,29.20
2022-08-04T16:56:30.120Z,29.20
2022-08-04T16:59:08.509Z,29.30
2022-08-04T17:01:38.538Z,29.30
2022-08-04T17:04:12.519Z,29.30
2022-08-04T17:06:44.724Z,29.30
2022-08-04T17:09:15.521Z,29.20
2022-08-04T17:11:45.366Z,29.20
2022-08-04T17:14:14.667Z,29.20
2022-08-04T17:16:44.558Z,29.10
2022-08-04T17:19:24.302Z,29.00
2022-08-04T17:22:04.079Z,29.00
2022-08-04T17:24:35.196Z,29.00
2022-08-04T17:27:04.247Z,29.00
2022-08-04T17:29:42.844Z,29.00
2022-08-04T17:32:15.871Z,29.10
2022-08-04T17:34:48.708Z,29.10
2022-08-04T17:37:39.385Z,29.00
2022-08-04T17:40:10.272Z,29.10
2022-08-04T17:42:40.380Z,29.00
2022-08-04T17:48:03.069Z,29.10
2022-08-04T17:50:35.775Z,29.00
2022-08-04T17:53:12.074Z,29.00
2022-08-04T17:55:47.069Z,29.00
2022-08-04T17:58:21.175Z,28.90
2022-08-04T18:01:16.347Z,28.90
2022-08-04T18:03:51.692Z,28.90
2022-08-04T18:06:22.823Z,28.90
2022-08-04T18:08:58.082Z,28.90
2022-08-04T18:11:29.721Z,28.80
2022-08-04T18:14:11.346Z,28.80
2022-08-04T18:16:46.097Z,28.80
2022-08-04T18:19:15.705Z,28.80
2022-08-04T18:22:00.287Z,28.70
2022-08-04T18:24:35.310Z,28.70
2022-08-04T18:27:24.349Z,28.70
2022-08-04T18:30:28.018Z,28.70
2022-08-04T18:33:24.549Z,28.60
2022-08-04T18:36:32.614Z,28.60
2022-08-04T18:38:24.354Z,28.50
2022-08-04T18:40:56.483Z,28.50
2022-08-04T18:43:28.373Z,28.50
2022-08-04T18:46:14.038Z,28.50
2022-08-04T18:48:42.789Z,28.40
2022-08-04T18:51:23.815Z,28.50
2022-08-04T18:53:57.966Z,28.40
2022-08-04T18:56:31.644Z,28.40
2022-08-04T18:59:01.298Z,28.30
2022-08-04T19:02:13.040Z,28.30
2022-08-04T19:04:33.292Z,28.30
2022-08-04T19:07:29.943Z,28.30
2022-08-04T19:09:57.581Z,28.20
2022-08-04T19:12:29.600Z,28.20
2022-08-04T19:15:08.360Z,28.20
2022-08-04T19:17:53.264Z,28.20
2022-08-04T19:20:27.313Z,28.20
2022-08-04T19:24:28.011Z,28.20
2022-08-04T19:26:02.783Z,28.10
2022-08-04T19:28:36.865Z,27.90
2022-08-04T19:31:07.226Z,28.10
2022-08-04T19:33:55.410Z,28.10
2022-08-04T19:36:28.537Z,28.10
2022-08-04T19:38:57.532Z,28.00
2022-08-04T19:41:26.974Z,28.00
2022-08-04T19:43:56.864Z,28.10
2022-08-04T19:46:27.923Z,28.00
2022-08-04T19:48:59.457Z,28.10
2022-08-04T19:51:30.249Z,28.00
2022-08-04T19:54:03.782Z,28.00
2022-08-04T19:56:39.837Z,28.00
2022-08-04T19:59:11.255Z,28.00
2022-08-04T20:01:44.529Z,28.00
2022-08-04T20:04:14.634Z,28.00
2022-08-04T20:06:46.211Z,27.90
2022-08-04T20:09:25.896Z,28.00
2022-08-04T20:11:56.060Z,28.00
2022-08-04T20:14:32.478Z,28.00
2022-08-04T20:17:02.210Z,27.90
2022-08-04T20:19:30.804Z,27.90
2022-08-04T20:22:00.004Z,27.90
2022-08-04T20:24:41.649Z,27.90
2022-08-04T20:27:15.182Z,27.60
2022-08-04T20:29:49.039Z,27.90
2022-08-04T20:32:19.797Z,27.90
2022-08-04T20:34:48.858Z,27.80
2022-08-04T20:37:17.230Z,27.80
2022-08-04T20:39:54.789Z,27.70
2022-08-04T20:48:02.774Z,27.50
2022-08-04T20:50:30.917Z,27.40
2022-08-04T20:52:59.823Z,27.30
2022-08-04T20:55:29.518Z,27.30
2022-08-04T20:58:05.941Z,27.20
2022-08-04T21:00:39.587Z,27.10
2022-08-04T21:03:10.246Z,27.10
2022-08-04T21:05:42.428Z,27.00
2022-08-04T21:08:14.783Z,27.00
2022-08-04T21:10:47.497Z,26.90
2022-08-04T21:13:16.222Z,26.90
2022-08-04T21:15:58.482Z,26.90
2022-08-04T21:18:29.333Z,26.80
2022-08-04T21:20:59.666Z,26.80
2022-08-04T21:26:26.048Z,26.70
2022-08-04T21:28:54.491Z,26.70
2022-08-04T21:31:24.296Z,26.70
2022-08-04T21:33:54.203Z,26.70
2022-08-04T21:36:22.584Z,26.70
2022-08-04T21:38:55.937Z,26.70
2022-08-04T21:41:27.200Z,26.70
2022-08-04T21:43:56.553Z,26.70
2022-08-04T21:46:30.539Z,26.60
2022-08-04T21:48:59.850Z,26.60
2022-08-04T21:52:00.416Z,26.50
2022-08-04T21:54:18.313Z,26.50
2022-08-04T21:56:50.940Z,26.40
2022-08-04T21:59:23.606Z,26.40
2022-08-04T22:02:01.794Z,26.40
2022-08-04T22:04:31.026Z,26.30
2022-08-04T22:07:02.689Z,26.20
2022-08-04T22:09:37.703Z,26.20
2022-08-04T22:12:12.056Z,26.20
2022-08-04T22:14:40.749Z,26.20
2022-08-04T22:17:13.424Z,26.10
2022-08-04T22:19:55.085Z,26.20
2022-08-04T22:22:27.050Z,26.20
2022-08-04T22:25:01.746Z,26.20
2022-08-04T22:27:55.032Z,26.20
2022-08-04T22:30:29.184Z,26.30
2022-08-04T22:33:03.724Z,26.20
2022-08-04T22:35:43.865Z,26.20
2022-08-04T22:38:25.585Z,26.30
2022-08-04T22:41:02.963Z,26.30
2022-08-04T22:43:34.389Z,26.30
2022-08-04T22:46:06.638Z,26.30
2022-08-04T22:48:38.243Z,26.30
2022-08-04T22:51:08.578Z,26.30
2022-08-04T22:53:37.410Z,26.30
2022-08-04T22:56:09.665Z,26.30
2022-08-04T22:58:45.237Z,26.30
2022-08-04T23:01:15.506Z,26.20
2022-08-04T23:03:50.975Z,26.20
2022-08-04T23:06:28.509Z,26.20
2022-08-04T23:08:58.083Z,26.20
2022-08-04T23:11:34.573Z,26.20
2022-08-04T23:14:04.539Z,26.20
2022-08-04T23:16:32.828Z,26.20
2022-08-04T23:19:15.099Z,26.20
2022-08-04T23:21:47.626Z,26.10
2022-08-04T23:24:29.756Z,26.20
2022-08-04T23:26:58.372Z,26.20
2022-08-04T23:29:27.453Z,26.10
2022-08-04T23:31:59.213Z,26.10
2022-08-04T23:34:30.224Z,26.10
2022-08-04T23:36:59.079Z,26.10
2022-08-04T23:40:04.250Z,26.10
2022-08-04T23:42:20.944Z,26.00
2022-08-04T23:44:50.001Z,26.00
2022-08-04T23:48:15.908Z,26.00
2022-08-04T23:50:11.561Z,26.00
2022-08-04T23:52:39.714Z,26.00
2022-08-04T23:55:19.088Z,26.00
2022-08-04T23:58:06.153Z,26.00
